Time;durP1;ratioP1;P1;durP2;ratioP2;P2;SDS_P1;SDS_P2;PMS_P1;PMS_P2;Temp;Humidity;BMP_temperature;BMP_pressure;BME280_temperature;BME280_humidity;BME280_pressure;Samples;Min_cycle;Max_cycle;Signal;HPM_P1;HPM_P2
2021/12/16 00:02:43;;;;;;;51.90;24.52;;;;;;;8.66;100.00;103320.56;5130383;27;20043;-53
2021/12/16 00:05:25;;;;;;;47.17;22.90;;;;;;;8.62;100.00;103319.72;5129215;27;20068;-52
2021/12/16 00:07:58;;;;;;;55.92;24.80;;;;;;;8.57;100.00;103318.94;5127552;27;20442;-51
2021/12/16 00:10:32;;;;;;;55.92;25.08;;;;;;;8.56;100.00;103330.34;5126974;28;20051;-51
2021/12/16 00:32:47;;;;;;;52.88;25.52;;;;;;;8.48;100.00;103329.59;5128924;27;20081;-51
2021/12/16 00:35:17;;;;;;;52.58;24.77;;;;;;;8.50;100.00;103335.69;5119079;28;20392;-53
2021/12/16 00:37:45;;;;;;;55.50;25.40;;;;;;;8.48;100.00;103326.09;5128217;28;20043;-53
2021/12/16 00:40:14;;;;;;;51.00;24.15;;;;;;;8.49;100.00;103323.44;5125721;28;20039;-53
2021/12/16 00:42:49;;;;;;;53.60;24.33;;;;;;;8.51;100.00;103326.94;5128196;28;20099;-52
2021/12/16 00:45:36;;;;;;;55.17;24.60;;;;;;;8.51;100.00;103332.16;5128228;28;20051;-51
2021/12/16 00:48:20;;;;;;;51.30;24.15;;;;;;;8.48;100.00;103319.13;5127609;28;20040;-52
2021/12/16 00:56:21;;;;;;;58.45;24.35;;;;;;;8.49;100.00;103327.84;5115581;28;20502;-51
2021/12/16 00:58:54;;;;;;;52.83;24.15;;;;;;;8.45;100.00;103330.53;5111842;28;20051;-50
2021/12/16 01:01:37;;;;;;;55.85;26.17;;;;;;;8.41;100.00;103328.81;5113503;28;20066;-48
2021/12/16 01:04:48;;;;;;;52.37;23.70;;;;;;;8.45;100.00;103333.16;5096015;28;20380;-48
2021/12/16 01:07:39;;;;;;;56.00;25.83;;;;;;;8.44;100.00;103330.53;5113981;28;20054;-50
2021/12/16 01:35:20;;;;;;;52.50;24.33;;;;;;;8.38;100.00;103356.81;5113426;28;20486;-53
2021/12/16 01:52:04;;;;;;;58.38;25.42;;;;;;;8.36;100.00;103374.34;5097802;28;20040;-48
2021/12/16 01:54:45;;;;;;;;;;;;;;;8.39;100.00;103369.91;5113314;28;20047;-54
2021/12/16 01:57:22;;;;;;;57.53;26.77;;;;;;;8.39;100.00;103379.53;5110857;28;19919;-53
2021/12/16 02:00:00;;;;;;;56.63;26.02;;;;;;;8.38;100.00;103383.91;5113177;28;20036;-55
2021/12/16 02:02:39;;;;;;;60.63;26.25;;;;;;;8.36;100.00;103379.59;5112799;28;20051;-51
2021/12/16 02:05:24;;;;;;;54.70;25.35;;;;;;;8.35;100.00;103378.72;5113364;28;20031;-51
2021/12/16 02:11:04;;;;;;;56.75;26.55;;;;;;;8.38;100.00;103375.19;5083194;27;21150;-53
2021/12/16 02:13:46;;;;;;;55.95;25.95;;;;;;;8.36;100.00;103390.09;5083190;28;20109;-55
2021/12/16 02:27:33;;;;;;;57.95;26.63;;;;;;;8.29;100.00;103394.56;5081987;28;20032;-54
2021/12/16 02:33:06;;;;;;;58.72;26.98;;;;;;;8.29;100.00;103397.19;5071944;28;20053;-53
2021/12/16 02:35:41;;;;;;;55.40;26.13;;;;;;;8.22;100.00;103388.53;5062592;28;20049;-52
2021/12/16 02:38:13;;;;;;;59.03;26.00;;;;;;;8.19;100.00;103388.56;5056983;28;20098;-51
2021/12/16 02:40:42;;;;;;;58.03;27.30;;;;;;;8.17;100.00;103381.63;5053847;28;20375;-54
2021/12/16 02:43:37;;;;;;;58.58;26.42;;;;;;;8.18;100.00;103394.72;5075110;28;20461;-46
2021/12/16 02:48:51;;;;;;;57.63;25.92;;;;;;;8.18;100.00;103393.81;5074483;28;20049;-46
2021/12/16 02:51:25;;;;;;;60.30;25.42;;;;;;;8.19;100.00;103390.31;5088947;28;20056;-48
2021/12/16 02:53:58;;;;;;;57.78;25.83;;;;;;;8.17;100.00;103387.72;5081282;28;20040;-51
2021/12/16 02:56:27;;;;;;;54.85;25.17;;;;;;;8.15;100.00;103384.25;5082291;28;20483;-52
2021/12/16 02:58:58;;;;;;;52.28;24.27;;;;;;;8.21;100.00;103381.56;5078268;28;20040;-49
2021/12/16 03:01:30;;;;;;;51.28;23.90;;;;;;;8.16;100.00;103388.59;5072636;28;20399;-48
2021/12/16 03:03:59;;;;;;;60.47;26.02;;;;;;;8.09;100.00;103385.19;5072586;28;20049;-48
2021/12/16 03:06:30;;;;;;;54.42;25.30;;;;;;;8.14;100.00;103385.16;5078696;28;20056;-49
2021/12/16 03:09:02;;;;;;;51.90;24.83;;;;;;;8.12;100.00;103386.91;5078662;28;20064;-50
2021/12/16 03:11:40;;;;;;;57.30;25.30;;;;;;;8.11;100.00;103390.41;5078251;28;20041;-52
2021/12/16 03:14:24;;;;;;;57.08;25.08;;;;;;;8.10;100.00;103384.31;5088659;28;20495;-52
2021/12/16 03:17:06;;;;;;;55.53;25.60;;;;;;;8.12;100.00;103381.69;5048706;28;20049;-48
2021/12/16 03:19:47;;;;;;;53.78;24.92;;;;;;;8.11;100.00;103375.59;5059137;28;20101;-48
2021/12/16 03:22:28;;;;;;;50.88;24.83;;;;;;;8.11;100.00;103386.06;5056635;28;20041;-47
2021/12/16 03:25:12;;;;;;;51.90;24.42;;;;;;;8.12;100.00;103385.16;5068291;28;20091;-48
2021/12/16 03:28:20;;;;;;;61.55;26.33;;;;;;;8.13;100.00;103394.75;5058961;28;20483;-48
2021/12/16 03:31:05;;;;;;;49.63;22.88;;;;;;;8.16;100.00;103395.63;5060780;28;20048;-53
2021/12/16 03:33:53;;;;;;;55.45;25.70;;;;;;;8.11;100.00;103400.91;5068661;28;20037;-54
2021/12/16 03:36:31;;;;;;;49.10;24.75;;;;;;;8.09;100.00;103394.84;5058714;28;20495;-49
2021/12/16 03:39:03;;;;;;;49.05;23.42;;;;;;;8.12;100.00;103381.69;5063627;28;20139;-50
2021/12/16 03:41:34;;;;;;;52.85;24.23;;;;;;;8.15;100.00;103392.09;5055281;28;20048;-55
2021/12/16 03:44:08;;;;;;;50.22;23.27;;;;;;;8.10;100.00;103397.44;5056917;28;20045;-48
2021/12/16 03:46:39;;;;;;;50.53;25.38;;;;;;;8.06;100.00;103392.28;5059770;28;20720;-53
2021/12/16 03:49:14;;;;;;;52.25;25.13;;;;;;;8.07;100.00;103399.22;5057517;28;20541;-54
2021/12/16 03:51:47;;;;;;;54.13;22.88;;;;;;;8.07;100.00;103401.84;5057590;28;20053;-52
2021/12/16 03:54:19;;;;;;;54.03;24.75;;;;;;;8.11;100.00;103414.00;5054293;28;20048;-51
2021/12/16 03:56:49;;;;;;;58.08;24.70;;;;;;;8.05;100.00;103408.88;5063425;28;20056;-52
2021/12/16 03:59:23;;;;;;;60.17;23.85;;;;;;;8.00;100.00;103402.81;5066756;28;20049;-54
2021/12/16 04:01:53;;;;;;;53.28;23.17;;;;;;;7.98;100.00;103404.63;5059668;28;20392;-50
2021/12/16 04:04:22;;;;;;;51.60;24.00;;;;;;;8.02;100.00;103412.41;5065185;28;20094;-52
2021/12/16 04:06:50;;;;;;;57.35;24.50;;;;;;;8.03;100.00;103416.75;5055454;28;20033;-56
2021/12/16 04:09:19;;;;;;;55.22;24.23;;;;;;;7.98;100.00;103405.47;5060891;28;20071;-48
2021/12/16 04:11:57;;;;;;;54.90;24.30;;;;;;;7.98;100.00;103410.72;5066066;28;20098;-54
2021/12/16 04:14:25;;;;;;;58.88;23.92;;;;;;;8.01;100.00;103412.44;5072943;28;20064;-49
2021/12/16 04:16:55;;;;;;;50.33;20.92;;;;;;;8.05;100.00;103412.34;5073762;28;20621;-50
2021/12/16 04:19:28;;;;;;;55.97;23.67;;;;;;;8.03;100.00;103408.00;5073938;28;20059;-55
2021/12/16 04:22:00;;;;;;;53.65;22.73;;;;;;;7.98;100.00;103404.63;5073792;28;20123;-52
2021/12/16 04:24:28;;;;;;;61.78;25.30;;;;;;;8.01;100.00;103399.31;5071868;28;20062;-55
2021/12/16 04:26:59;;;;;;;56.60;23.77;;;;;;;7.95;100.00;103402.91;5071546;28;20702;-56
2021/12/16 04:29:30;;;;;;;59.05;25.05;;;;;;;7.86;100.00;103396.00;5073322;28;20411;-54
2021/12/16 04:32:00;;;;;;;55.13;24.55;;;;;;;7.91;100.00;103394.19;5072764;28;20048;-55
2021/12/16 04:34:28;;;;;;;63.53;26.00;;;;;;;7.91;100.00;103409.06;5073407;28;20052;-50
2021/12/16 04:36:57;;;;;;;57.67;23.92;;;;;;;7.93;100.00;103402.91;5073527;28;20060;-55
2021/12/16 04:39:29;;;;;;;53.97;23.80;;;;;;;7.97;100.00;103402.88;5070624;28;20061;-55
2021/12/16 04:41:59;;;;;;;54.70;22.90;;;;;;;7.97;100.00;103413.34;5071271;28;20395;-54
2021/12/16 04:44:29;;;;;;;53.05;22.88;;;;;;;7.96;100.00;103425.56;5072089;28;20071;-51
2021/12/16 04:47:01;;;;;;;57.35;23.77;;;;;;;7.93;100.00;103417.75;5070703;28;20045;-52
2021/12/16 04:49:29;;;;;;;49.90;22.10;;;;;;;7.93;100.00;103428.25;5071228;28;20044;-56
2021/12/16 04:52:01;;;;;;;54.75;22.80;;;;;;;7.97;100.00;103429.06;5072780;28;20075;-54
2021/12/16 04:54:30;;;;;;;57.00;24.95;;;;;;;7.94;100.00;103425.59;5073194;28;20174;-51
2021/12/16 04:57:00;;;;;;;51.13;23.77;;;;;;;7.91;100.00;103428.25;5073065;28;20060;-50
2021/12/16 04:59:31;;;;;;;51.70;23.30;;;;;;;7.98;100.00;103441.28;5072685;28;20040;-52
2021/12/16 05:02:02;;;;;;;52.00;23.75;;;;;;;7.84;100.00;103446.69;5070457;28;20049;-50
2021/12/16 05:04:30;;;;;;;50.42;21.83;;;;;;;7.84;100.00;103444.06;5068434;28;20057;-53
2021/12/16 05:06:59;;;;;;;53.33;23.20;;;;;;;7.82;100.00;103457.19;5072711;28;20048;-51
2021/12/16 05:12:18;;;;;;;53.13;23.48;;;;;;;7.91;100.00;103441.38;5072426;28;20446;-53
2021/12/16 05:14:47;;;;;;;52.65;22.00;;;;;;;7.92;100.00;103440.47;5072702;28;20055;-52
2021/12/16 05:17:26;;;;;;;51.60;22.27;;;;;;;7.87;100.00;103437.03;5071590;28;20044;-52
2021/12/16 05:19:55;;;;;;;54.72;23.50;;;;;;;7.86;100.00;103437.06;5069224;28;20418;-53
2021/12/16 05:25:20;;;;;;;50.03;21.50;;;;;;;7.95;100.00;103444.81;5072715;28;20492;-52
2021/12/16 05:27:49;;;;;;;47.80;20.38;;;;;;;7.90;100.00;103438.75;5072644;28;20422;-52
2021/12/16 05:30:17;;;;;;;55.15;23.90;;;;;;;7.84;100.00;103444.06;5070937;28;20052;-53
2021/12/16 05:32:46;;;;;;;53.72;23.60;;;;;;;7.88;100.00;103445.75;5068617;28;20097;-52
2021/12/16 05:35:18;;;;;;;49.70;23.15;;;;;;;7.89;100.00;103443.13;5071377;28;20048;-52
2021/12/16 05:37:47;;;;;;;51.35;23.73;;;;;;;7.85;100.00;103451.91;5072421;28;20055;-53
2021/12/16 05:40:18;;;;;;;52.88;21.13;;;;;;;7.85;100.00;103451.91;5072322;28;20044;-50
2021/12/16 05:42:46;;;;;;;49.45;21.48;;;;;;;7.82;100.00;103451.09;5072327;28;20098;-54
2021/12/16 05:45:16;;;;;;;55.95;23.25;;;;;;;7.88;100.00;103451.00;5069086;28;20048;-53
2021/12/16 05:47:44;;;;;;;54.67;22.80;;;;;;;7.89;100.00;103456.22;5068434;28;20048;-50
2021/12/16 05:50:13;;;;;;;47.17;21.33;;;;;;;7.89;100.00;103464.09;5072189;28;20044;-51
2021/12/16 05:52:41;;;;;;;48.08;22.95;;;;;;;7.90;100.00;103460.59;5072322;28;20059;-52
2021/12/16 05:55:11;;;;;;;50.42;22.42;;;;;;;7.90;100.00;103460.59;5072300;28;20429;-53
2021/12/16 05:57:40;;;;;;;47.88;22.00;;;;;;;7.91;100.00;103459.72;5072214;28;20407;-53
2021/12/16 06:00:13;;;;;;;46.38;21.05;;;;;;;7.92;100.00;103468.41;5070742;28;20052;-52
2021/12/16 06:02:43;;;;;;;46.55;21.15;;;;;;;7.91;100.00;103472.81;5071984;28;20045;-54
2021/12/16 06:05:11;;;;;;;53.90;22.10;;;;;;;7.92;100.00;103479.78;5072084;28;20044;-53
2021/12/16 06:07:39;;;;;;;50.20;21.48;;;;;;;7.93;100.00;103484.16;5072213;28;20048;-52
2021/12/16 06:10:13;;;;;;;47.65;21.30;;;;;;;7.93;100.00;103484.16;5071923;28;20118;-51
2021/12/16 06:12:41;;;;;;;54.50;23.67;;;;;;;7.92;100.00;103479.78;5070158;28;20495;-52
2021/12/16 06:15:20;;;;;;;49.03;22.02;;;;;;;7.91;100.00;103477.19;5068665;28;20049;-51
2021/12/16 06:28:46;;;;;;;44.53;20.35;;;;;;;7.78;100.00;103484.31;5072035;28;20095;-55
2021/12/16 06:31:16;;;;;;;48.75;21.48;;;;;;;7.83;100.00;103481.66;5072049;28;20058;-55
2021/12/16 06:33:45;;;;;;;46.22;20.42;;;;;;;7.82;100.00;103488.63;5071796;28;20142;-56
2021/12/16 06:36:18;;;;;;;44.05;19.73;;;;;;;7.85;100.00;103496.44;5071894;28;20041;-56
2021/12/16 06:38:46;;;;;;;44.80;19.63;;;;;;;7.87;100.00;103499.06;5071680;28;20055;-56
2021/12/16 06:41:16;;;;;;;39.35;19.85;;;;;;;7.84;100.00;103497.34;5072152;28;20119;-55
2021/12/16 06:43:46;;;;;;;40.45;19.27;;;;;;;7.83;100.00;103513.09;5069768;28;20532;-56
2021/12/16 06:46:17;;;;;;;40.67;19.48;;;;;;;7.85;100.00;103533.13;5069086;28;20060;-55
2021/12/16 06:48:55;;;;;;;41.47;18.93;;;;;;;7.84;100.00;103527.91;5071806;28;20177;-56
2021/12/16 06:51:35;;;;;;;41.85;19.80;;;;;;;7.78;100.00;103519.25;5071707;28;20395;-57
2021/12/16 06:54:13;;;;;;;42.08;18.15;;;;;;;7.78;100.00;103527.13;5071398;28;20136;-55
2021/12/16 06:56:49;;;;;;;42.53;18.58;;;;;;;7.81;100.00;103522.72;5073889;28;20037;-49
2021/12/16 06:59:24;;;;;;;46.00;20.50;;;;;;;7.73;100.00;103518.44;5072442;28;20056;-49
2021/12/16 07:02:04;;;;;;;39.63;19.58;;;;;;;7.77;100.00;103517.50;5073414;28;20051;-54
2021/12/16 07:04:36;;;;;;;43.80;18.92;;;;;;;7.76;100.00;103520.16;5075122;28;20044;-52
2021/12/16 07:07:07;;;;;;;41.67;18.88;;;;;;;7.73;100.00;103522.78;5075498;28;20105;-54
2021/12/16 07:09:37;;;;;;;39.53;17.52;;;;;;;7.76;100.00;103530.63;5074720;28;20057;-49
2021/12/16 07:12:09;;;;;;;37.53;17.92;;;;;;;7.69;100.00;103534.19;5072658;28;20044;-48
2021/12/16 07:14:39;;;;;;;38.67;17.77;;;;;;;7.64;100.00;103541.25;5072773;28;20044;-49
2021/12/16 07:17:11;;;;;;;43.00;18.30;;;;;;;7.63;100.00;103544.72;5074895;28;20098;-54
2021/12/16 07:19:42;;;;;;;40.55;18.45;;;;;;;7.60;100.00;103541.25;5074997;28;20052;-53
2021/12/16 07:22:13;;;;;;;40.70;18.38;;;;;;;7.59;100.00;103551.75;5074971;28;20053;-54
2021/12/16 07:24:41;;;;;;;37.10;18.02;;;;;;;7.57;100.00;103556.13;5074832;28;20504;-49
2021/12/16 07:27:10;;;;;;;36.10;17.67;;;;;;;7.57;100.00;103572.72;5073720;28;20048;-52
2021/12/16 07:29:38;;;;;;;37.47;17.63;;;;;;;7.61;100.00;103579.66;5071128;28;20072;-52
2021/12/16 07:32:07;;;;;;;43.50;18.38;;;;;;;7.59;100.00;103581.44;5074046;28;20538;-49
2021/12/16 07:34:35;;;;;;;34.70;16.75;;;;;;;7.57;100.00;103583.19;5074723;28;20105;-54
2021/12/16 07:37:08;;;;;;;38.25;18.65;;;;;;;7.56;100.00;103589.31;5074677;28;20056;-48
2021/12/16 07:39:38;;;;;;;39.35;19.05;;;;;;;7.60;100.00;103604.09;5074682;28;20052;-52
2021/12/16 07:42:08;;;;;;;41.00;18.77;;;;;;;7.64;100.00;103601.47;5074667;28;20055;-49
2021/12/16 07:44:36;;;;;;;37.53;18.13;;;;;;;7.65;100.00;103606.69;5074440;28;20044;-52
2021/12/16 07:47:08;;;;;;;35.92;17.67;;;;;;;7.64;100.00;103609.34;5074397;28;20057;-53
2021/12/16 07:49:40;;;;;;;33.30;17.13;;;;;;;7.64;100.00;103614.59;5074511;28;20045;-55
2021/12/16 07:52:13;;;;;;;39.75;16.30;;;;;;;7.62;100.00;103614.56;5074440;28;20106;-49
2021/12/16 07:54:41;;;;;;;36.03;16.88;;;;;;;7.65;100.00;103605.81;5072331;28;20414;-51
2021/12/16 07:57:09;;;;;;;32.80;16.75;;;;;;;7.67;100.00;103614.53;5071548;28;20109;-54
2021/12/16 07:59:39;;;;;;;37.33;16.35;;;;;;;7.67;100.00;103620.63;5073839;28;20049;-55
2021/12/16 08:02:11;;;;;;;38.72;16.88;;;;;;;7.64;100.00;103638.16;5073925;28;20048;-49
2021/12/16 08:04:43;;;;;;;34.08;17.02;;;;;;;7.64;100.00;103625.91;5073979;28;20405;-52
2021/12/16 08:07:16;;;;;;;35.15;16.50;;;;;;;7.62;100.00;103627.66;5074348;28;20106;-54
2021/12/16 08:09:44;;;;;;;;;;;;;;;7.66;100.00;103633.75;5072322;28;20052;-52
2021/12/16 08:12:15;;;;;;;35.03;15.80;;;;;;;7.66;100.00;103636.38;5071494;28;19920;-55
2021/12/16 08:14:45;;;;;;;38.65;17.58;;;;;;;7.50;100.00;103633.88;5073975;28;20105;-53
2021/12/16 08:17:15;;;;;;;37.42;18.40;;;;;;;7.38;100.00;103636.59;5074117;28;20741;-48
2021/12/16 08:19:45;;;;;;;36.03;16.52;;;;;;;7.35;100.00;103639.22;5074055;28;20044;-48
2021/12/16 08:22:16;;;;;;;35.35;17.65;;;;;;;7.39;100.00;103644.44;5074101;28;20041;-52
2021/12/16 08:24:44;;;;;;;32.42;15.77;;;;;;;7.49;100.00;103647.00;5073646;28;20051;-55
2021/12/16 08:27:14;;;;;;;35.38;16.52;;;;;;;7.47;100.00;103643.50;5071329;28;20048;-55
2021/12/16 08:29:42;;;;;;;31.25;15.98;;;;;;;7.48;100.00;103633.00;5071883;28;20036;-55
2021/12/16 08:32:11;;;;;;;33.20;16.77;;;;;;;7.51;100.00;103646.13;5073736;28;20048;-49
2021/12/16 08:34:40;;;;;;;31.17;15.52;;;;;;;7.58;100.00;103660.00;5073555;28;20049;-52
2021/12/16 08:37:09;;;;;;;29.42;15.27;;;;;;;7.56;100.00;103654.78;5073040;28;20515;-53
2021/12/16 08:39:39;;;;;;;32.40;16.02;;;;;;;7.59;100.00;103654.78;5070737;28;20056;-49
2021/12/16 08:42:09;;;;;;;29.05;15.43;;;;;;;7.60;100.00;103651.25;5071913;28;20040;-48
2021/12/16 08:44:39;;;;;;;32.15;15.88;;;;;;;7.61;100.00;103657.38;5073200;28;20044;-51
2021/12/16 08:47:10;;;;;;;31.60;14.88;;;;;;;7.57;100.00;103663.53;5073159;28;20053;-48
2021/12/16 08:49:39;;;;;;;26.85;14.40;;;;;;;7.59;100.00;103660.00;5073521;28;20526;-54
2021/12/16 08:52:10;;;;;;;27.77;14.65;;;;;;;7.64;100.00;103659.09;5073137;28;20044;-51
2021/12/16 08:54:41;;;;;;;28.33;15.15;;;;;;;7.65;100.00;103671.31;5073089;28;20040;-52
2021/12/16 08:57:10;;;;;;;28.77;15.02;;;;;;;7.56;100.00;103661.78;5072959;28;20072;-47
2021/12/16 08:59:39;;;;;;;29.88;16.58;;;;;;;7.43;100.00;103672.34;5072984;28;20395;-55
2021/12/16 09:02:08;;;;;;;35.88;16.40;;;;;;;7.54;100.00;103671.38;5072292;28;20056;-51
2021/12/16 09:04:38;;;;;;;34.85;15.82;;;;;;;7.60;100.00;103680.06;5069315;28;20443;-49
2021/12/16 09:07:09;;;;;;;35.05;16.25;;;;;;;7.65;100.00;103668.69;5070812;28;20066;-49
2021/12/16 09:09:40;;;;;;;33.42;16.35;;;;;;;7.66;100.00;103671.28;5072332;28;20400;-47
2021/12/16 09:12:37;;;;;;;34.10;15.02;;;;;;;7.61;100.00;103679.19;5072559;28;20056;-54
2021/12/16 09:15:06;;;;;;;30.60;15.02;;;;;;;7.61;100.00;103679.19;5071950;28;20555;-48
2021/12/16 09:17:34;;;;;;;27.67;14.23;;;;;;;7.67;100.00;103682.66;5068582;28;20553;-49
2021/12/16 09:20:04;;;;;;;34.05;14.95;;;;;;;7.70;100.00;103683.50;5070040;28;20094;-47
2021/12/16 09:22:32;;;;;;;31.20;14.93;;;;;;;7.63;100.00;103687.03;5072380;28;20044;-52
2021/12/16 09:25:02;;;;;;;34.03;15.57;;;;;;;7.66;100.00;103683.53;5072282;28;20128;-53
2021/12/16 09:27:31;;;;;;;32.47;15.20;;;;;;;7.70;100.00;103690.47;5071636;28;20044;-47
2021/12/16 09:30:00;;;;;;;30.13;14.85;;;;;;;7.73;100.00;103693.06;5067861;28;20052;-47
2021/12/16 09:32:30;;;;;;;33.72;14.60;;;;;;;7.68;100.00;103694.88;5070994;28;20044;-54
2021/12/16 09:34:59;;;;;;;35.30;14.85;;;;;;;7.72;100.00;103688.72;5072347;28;20507;-54
2021/12/16 09:37:28;;;;;;;31.05;14.32;;;;;;;7.78;100.00;103688.66;5072264;28;20051;-54
2021/12/16 09:39:57;;;;;;;32.38;15.68;;;;;;;7.81;100.00;103698.25;5071615;28;20044;-48
2021/12/16 09:42:27;;;;;;;28.20;14.52;;;;;;;7.84;100.00;103690.38;5069530;28;20048;-53
2021/12/16 09:44:55;;;;;;;30.58;14.93;;;;;;;7.82;100.00;103697.38;5070434;28;20505;-54
2021/12/16 09:47:27;;;;;;;35.75;15.30;;;;;;;7.80;100.00;103697.41;5072248;28;20066;-52
2021/12/16 09:49:55;;;;;;;35.45;15.57;;;;;;;7.83;100.00;103701.75;5069328;28;20732;-56
2021/12/16 09:52:24;;;;;;;32.22;14.20;;;;;;;7.87;100.00;103706.94;5070048;28;20040;-52
2021/12/16 09:54:52;;;;;;;36.72;14.93;;;;;;;7.89;100.00;103710.41;5049115;28;20048;-56
2021/12/16 09:57:20;;;;;;;34.97;14.57;;;;;;;7.89;100.00;103713.03;5049470;28;20138;-55
2021/12/16 09:59:49;;;;;;;34.83;13.05;;;;;;;7.81;100.00;103704.34;5049502;28;20484;-56
2021/12/16 10:02:20;;;;;;;33.40;13.60;;;;;;;7.81;100.00;103706.97;5043764;28;20052;-54
2021/12/16 10:04:49;;;;;;;40.10;14.05;;;;;;;7.86;100.00;103713.06;5049344;28;20089;-55
2021/12/16 10:07:20;;;;;;;33.20;14.13;;;;;;;7.82;100.00;103719.19;5050891;28;20041;-55
2021/12/16 10:09:51;;;;;;;35.05;15.93;;;;;;;7.77;100.00;103715.75;5047120;28;20505;-56
2021/12/16 10:12:25;;;;;;;31.73;15.07;;;;;;;7.87;100.00;103716.56;5043682;28;20037;-55
2021/12/16 10:17:19;;;;;;;33.00;14.32;;;;;;;7.84;100.00;103706.09;5048925;28;20056;-55
2021/12/16 10:17:54;;;;;;;34.00;16.17;;;;;;;7.91;100.00;103719.13;5045774;28;20067;-54
2021/12/16 10:20:27;;;;;;;34.45;13.90;;;;;;;7.92;100.00;103713.03;5041200;28;20036;-53
2021/12/16 10:23:19;;;;;;;32.40;14.73;;;;;;;7.97;100.00;103723.44;5049287;28;20045;-55
2021/12/16 10:25:49;;;;;;;33.92;15.82;;;;;;;8.02;100.00;103726.91;5053217;28;20413;-53
2021/12/16 10:28:23;;;;;;;32.55;14.60;;;;;;;8.03;100.00;103727.78;5072134;28;20545;-52
2021/12/16 10:30:58;;;;;;;30.23;14.45;;;;;;;8.06;100.00;103730.38;5073199;28;20514;-48
2021/12/16 10:33:32;;;;;;;32.65;14.80;;;;;;;8.07;100.00;103719.00;5072017;28;20048;-52
2021/12/16 10:36:07;;;;;;;30.45;14.27;;;;;;;8.12;100.00;103712.81;5073440;28;20048;-52
2021/12/16 10:38:40;;;;;;;32.25;15.27;;;;;;;8.15;100.00;103711.06;5075801;28;20052;-48
2021/12/16 10:41:09;;;;;;;;;;;;;;;8.16;100.00;103718.06;5076148;28;20044;-48
2021/12/16 10:43:41;;;;;;;32.03;13.32;;;;;;;8.19;100.00;103712.78;5075732;28;19920;-51
2021/12/16 10:46:15;;;;;;;33.50;15.07;;;;;;;8.12;100.00;103725.94;5075664;28;20090;-49
2021/12/16 10:48:44;;;;;;;32.92;15.32;;;;;;;8.17;100.00;103725.06;5075803;28;20048;-49
2021/12/16 10:51:19;;;;;;;33.22;16.02;;;;;;;8.15;100.00;103722.41;5074144;28;20135;-51
2021/12/16 10:54:12;;;;;;;32.05;14.52;;;;;;;8.16;100.00;103723.31;5075409;28;20036;-50
2021/12/16 10:56:47;;;;;;;29.38;15.02;;;;;;;8.18;100.00;103721.53;5075441;28;20048;-52
2021/12/16 10:59:18;;;;;;;33.25;15.80;;;;;;;8.04;100.00;103721.66;5072150;28;20040;-48
2021/12/16 11:01:52;;;;;;;33.35;15.43;;;;;;;8.05;100.00;103718.16;5073565;28;20049;-48
2021/12/16 11:04:24;;;;;;;31.90;15.13;;;;;;;8.05;100.00;103710.28;5073140;28;20491;-52
2021/12/16 11:06:56;;;;;;;29.73;14.88;;;;;;;8.01;100.00;103703.34;5072666;28;20140;-54
2021/12/16 11:09:43;;;;;;;32.72;16.60;;;;;;;8.01;100.00;103708.59;5074757;28;20055;-53
2021/12/16 11:12:20;;;;;;;32.95;14.23;;;;;;;8.07;100.00;103708.50;5075103;28;20056;-48
2021/12/16 11:14:51;;;;;;;29.45;14.15;;;;;;;8.13;100.00;103713.72;5074996;28;20040;-54
2021/12/16 11:17:23;;;;;;;32.92;15.05;;;;;;;8.12;100.00;103711.97;5074966;28;20040;-54
2021/12/16 11:19:55;;;;;;;34.35;16.65;;;;;;;8.05;100.00;103719.00;5075351;28;20053;-55
2021/12/16 11:22:28;;;;;;;34.03;15.73;;;;;;;8.08;100.00;103715.50;5073878;28;20048;-55
2021/12/16 11:24:57;;;;;;;29.92;15.52;;;;;;;8.02;100.00;103718.19;5072266;28;20044;-52
2021/12/16 11:27:30;;;;;;;33.70;15.93;;;;;;;8.10;100.00;103709.38;5073958;28;20091;-53
2021/12/16 11:30:00;;;;;;;32.45;15.63;;;;;;;8.12;100.00;103709.34;5074579;28;20074;-54
2021/12/16 11:32:39;;;;;;;32.80;15.50;;;;;;;8.08;100.00;103712.88;5073742;28;20051;-48
2021/12/16 11:35:28;;;;;;;29.83;15.60;;;;;;;8.13;100.00;103716.34;5073566;28;20165;-52
2021/12/16 11:37:57;;;;;;;32.38;15.82;;;;;;;8.06;100.00;103719.91;5071834;28;20060;-51
2021/12/16 11:40:26;;;;;;;33.22;15.93;;;;;;;8.11;100.00;103724.22;5073269;28;20534;-53
2021/12/16 11:43:03;;;;;;;31.33;15.65;;;;;;;8.15;100.00;103726.81;5074254;28;20040;-55
2021/12/16 11:45:34;;;;;;;32.17;15.40;;;;;;;8.20;100.00;103718.00;5074399;28;20049;-54
2021/12/16 11:48:06;;;;;;;31.80;16.67;;;;;;;8.21;100.00;103724.13;5074471;28;20067;-53
2021/12/16 11:50:40;;;;;;;32.78;16.60;;;;;;;8.25;100.00;103720.59;5074540;28;20060;-54
2021/12/16 11:53:10;;;;;;;31.83;15.93;;;;;;;8.19;100.00;103718.88;5074158;28;20396;-55
2021/12/16 11:55:39;;;;;;;29.90;16.05;;;;;;;8.13;100.00;103718.97;5071827;28;20127;-55
2021/12/16 11:58:09;;;;;;;28.58;15.60;;;;;;;8.21;100.00;103721.53;5073195;28;20407;-54
2021/12/16 12:00:40;;;;;;;29.38;14.57;;;;;;;8.27;100.00;103713.56;5072387;28;20079;-54
2021/12/16 12:03:13;;;;;;;31.05;15.00;;;;;;;8.27;100.00;103713.56;5070620;28;20045;-54
2021/12/16 12:05:44;;;;;;;28.17;14.60;;;;;;;8.13;100.00;103717.19;5074111;28;20166;-55
2021/12/16 12:08:16;;;;;;;30.45;14.88;;;;;;;8.15;100.00;103711.94;5074005;28;20143;-55
2021/12/16 12:10:47;;;;;;;27.23;14.50;;;;;;;8.23;100.00;103723.22;5072991;28;20048;-54
2021/12/16 12:13:18;;;;;;;28.42;14.68;;;;;;;8.22;100.00;103728.47;5070814;28;20048;-53
2021/12/16 12:15:55;;;;;;;28.15;14.85;;;;;;;8.14;100.00;103728.56;5073559;28;20396;-52
2021/12/16 12:18:38;;;;;;;25.83;12.90;;;;;;;8.13;100.00;103732.91;5072848;28;20048;-55
2021/12/16 12:21:33;;;;;;;;;;;;;;;8.22;100.00;103724.13;5061251;28;20053;-55
2021/12/16 12:24:07;;;;;;;23.92;12.10;;;;;;;8.29;100.00;103731.03;5026089;28;19928;-54
2021/12/16 12:26:37;;;;;;;26.95;13.70;;;;;;;8.35;100.00;103737.97;5052257;28;20506;-55
2021/12/16 12:29:09;;;;;;;27.50;13.20;;;;;;;8.33;100.00;103728.38;5049355;28;20400;-54
2021/12/16 12:31:42;;;;;;;25.45;13.38;;;;;;;8.29;100.00;103725.78;5048658;28;20103;-53
2021/12/16 12:34:13;;;;;;;27.98;13.63;;;;;;;8.31;100.00;103733.63;5048512;28;20060;-53
2021/12/16 12:36:42;;;;;;;23.67;12.32;;;;;;;8.17;100.00;103725.91;5050438;28;20040;-54
2021/12/16 12:39:12;;;;;;;24.75;12.98;;;;;;;8.11;100.00;103726.84;5051521;28;20144;-54
2021/12/16 12:41:41;;;;;;;26.42;13.48;;;;;;;8.14;100.00;103723.31;5053544;28;20041;-54
2021/12/16 12:44:09;;;;;;;29.50;12.25;;;;;;;8.10;100.00;103735.56;5053438;28;20079;-53
2021/12/16 12:46:39;;;;;;;24.70;13.07;;;;;;;8.21;100.00;103725.00;5053350;28;20430;-52
2021/12/16 12:49:11;;;;;;;23.60;12.27;;;;;;;8.20;100.00;103727.63;5053199;28;20060;-53
2021/12/16 12:51:44;;;;;;;27.67;13.83;;;;;;;8.22;100.00;103728.47;5053322;28;20049;-53
2021/12/16 12:54:25;;;;;;;27.95;13.15;;;;;;;8.19;100.00;103732.00;5052421;28;20450;-53
2021/12/16 12:56:57;;;;;;;25.25;12.82;;;;;;;8.17;100.00;103730.28;5053204;28;20060;-54
2021/12/16 12:59:34;;;;;;;25.23;13.70;;;;;;;8.17;100.00;103733.78;5053162;28;20074;-55
2021/12/16 13:02:15;;;;;;;24.48;12.75;;;;;;;8.12;100.00;103730.31;5052937;28;20045;-54
2021/12/16 13:04:48;;;;;;;22.98;12.40;;;;;;;8.18;100.00;103738.16;5053013;28;20476;-54
2021/12/16 13:07:18;;;;;;;22.52;11.73;;;;;;;8.02;100.00;103736.53;5052707;28;20056;-52
2021/12/16 13:09:50;;;;;;;25.25;13.65;;;;;;;8.03;100.00;103733.00;5051090;28;20041;-54
2021/12/16 13:12:36;;;;;;;21.10;11.35;;;;;;;8.08;100.00;103734.72;5050317;28;20067;-53
2021/12/16 13:15:33;;;;;;;22.95;12.63;;;;;;;8.07;100.00;103730.38;5053140;28;20107;-51
2021/12/16 13:26:38;;;;;;;25.10;13.73;;;;;;;8.35;100.00;103747.59;5049610;28;20064;-54